createdAt,value
2019-03-22T00:00:39.438Z,84.50
2019-03-22T00:03:14.985Z,84.20
2019-03-22T00:05:43.489Z,84.30
2019-03-22T00:08:14.780Z,84.20
2019-03-22T00:10:43.300Z,84.30
2019-03-22T00:13:11.865Z,84.10
2019-03-22T00:15:41.704Z,84.10
2019-03-22T00:18:10.230Z,84.10
2019-03-22T00:20:38.698Z,84.10
2019-03-22T00:23:14.274Z,84.20
2019-03-22T00:25:42.730Z,84.20
2019-03-22T00:28:12.743Z,84.20
2019-03-22T00:30:41.671Z,84.20
2019-03-22T00:33:10.162Z,84.20
2019-03-22T00:35:41.174Z,84.20
2019-03-22T00:38:09.672Z,84.20
2019-03-22T00:40:38.124Z,84.10
2019-03-22T00:43:07.896Z,84.20
2019-03-22T00:45:36.371Z,84.30
2019-03-22T00:48:05.326Z,84.20
2019-03-22T00:50:36.733Z,84.30
2019-03-22T00:53:05.222Z,84.40
2019-03-22T00:55:34.150Z,84.50
2019-03-22T00:58:02.713Z,84.60
2019-03-22T01:00:31.355Z,84.70
2019-03-22T01:02:59.890Z,84.50
2019-03-22T01:05:28.345Z,84.80
2019-03-22T01:07:56.853Z,84.90
2019-03-22T01:10:26.527Z,85.00
2019-03-22T01:12:55.091Z,85.00
2019-03-22T01:15:23.580Z,85.20
2019-03-22T01:17:52.056Z,85.30
2019-03-22T01:20:20.612Z,85.50
2019-03-22T01:22:49.106Z,85.50
2019-03-22T01:25:17.746Z,85.50
2019-03-22T01:27:46.253Z,85.60
2019-03-22T01:30:16.314Z,85.80
2019-03-22T01:32:44.828Z,85.80
2019-03-22T01:35:15.043Z,85.80
2019-03-22T01:37:49.832Z,85.70
2019-03-22T01:40:18.386Z,85.80
2019-03-22T01:42:51.053Z,85.90
2019-03-22T01:45:22.439Z,85.90
2019-03-22T01:47:51.178Z,86.00
2019-03-22T01:50:19.833Z,85.90
2019-03-22T01:52:49.900Z,86.00
2019-03-22T01:55:24.653Z,86.10
2019-03-22T01:57:54.094Z,86.30
2019-03-22T02:00:22.988Z,86.40
2019-03-22T02:02:51.517Z,86.40
2019-03-22T02:05:20.030Z,86.40
2019-03-22T02:07:51.124Z,86.50
2019-03-22T02:10:19.829Z,86.70
2019-03-22T02:12:48.283Z,86.60
2019-03-22T02:15:17.234Z,86.70
2019-03-22T02:17:47.548Z,86.70
2019-03-22T02:20:17.929Z,86.90
2019-03-22T02:22:46.495Z,86.90
2019-03-22T02:25:18.042Z,86.90
2019-03-22T02:27:46.520Z,87.00
2019-03-22T02:30:17.529Z,87.00
2019-03-22T02:32:46.961Z,87.10
2019-03-22T02:35:34.799Z,87.10
2019-03-22T02:38:03.262Z,87.40
2019-03-22T02:40:31.766Z,87.20
2019-03-22T02:43:00.302Z,87.20
2019-03-22T02:45:28.906Z,87.30
2019-03-22T02:47:57.403Z,87.30
2019-03-22T02:50:25.854Z,87.40
2019-03-22T02:52:54.320Z,87.40
2019-03-22T02:55:22.890Z,87.40
2019-03-22T02:57:53.099Z,87.40
2019-03-22T03:00:23.192Z,87.40
2019-03-22T03:03:00.260Z,88.20
2019-03-22T03:05:30.456Z,87.70
2019-03-22T03:07:58.910Z,87.30
2019-03-22T03:10:28.931Z,87.40
2019-03-22T03:12:57.399Z,87.50
2019-03-22T03:15:30.251Z,87.50
2019-03-22T03:17:58.799Z,87.50
2019-03-22T03:20:29.456Z,87.50
2019-03-22T03:23:02.188Z,87.50
2019-03-22T03:25:31.139Z,87.30
2019-03-22T03:27:59.805Z,87.50
2019-03-22T03:30:28.305Z,87.60
2019-03-22T03:32:57.181Z,87.60
2019-03-22T03:35:27.189Z,87.60
2019-03-22T03:37:55.717Z,87.70
2019-03-22T03:40:25.347Z,87.70
2019-03-22T03:42:53.957Z,87.70
2019-03-22T03:45:38.026Z,87.80
2019-03-22T03:48:11.669Z,87.80
2019-03-22T03:50:43.068Z,87.70
2019-03-22T03:53:13.179Z,88.00
2019-03-22T03:55:41.700Z,87.80
2019-03-22T03:58:10.326Z,87.30
2019-03-22T04:00:38.880Z,87.90
2019-03-22T04:03:07.356Z,88.00
2019-03-22T04:05:36.479Z,88.10
2019-03-22T04:08:06.714Z,88.00
2019-03-22T04:10:35.376Z,88.00
2019-03-22T04:13:06.516Z,88.00
2019-03-22T04:15:35.028Z,88.30
2019-03-22T04:18:07.199Z,88.40
2019-03-22T04:20:37.226Z,87.90
2019-03-22T04:23:10.383Z,88.00
2019-03-22T04:25:40.731Z,88.10
2019-03-22T04:28:10.582Z,88.10
2019-03-22T04:30:39.101Z,88.10
2019-03-22T04:33:07.644Z,88.10
2019-03-22T04:35:36.181Z,88.10
2019-03-22T04:38:06.725Z,88.10
2019-03-22T04:40:35.181Z,88.30
2019-03-22T04:43:03.840Z,88.20
2019-03-22T04:45:34.298Z,88.20
2019-03-22T04:48:12.720Z,88.20
2019-03-22T04:50:43.980Z,88.20
2019-03-22T04:53:15.534Z,88.20
2019-03-22T04:55:47.099Z,88.20
2019-03-22T04:58:21.478Z,88.20
2019-03-22T05:00:52.669Z,88.20
2019-03-22T05:03:22.872Z,88.20
2019-03-22T05:05:52.293Z,88.30
2019-03-22T05:08:40.782Z,88.30
2019-03-22T05:11:17.796Z,88.60
2019-03-22T05:13:52.354Z,88.30
2019-03-22T05:16:22.641Z,88.30
2019-03-22T05:18:56.856Z,88.30
2019-03-22T05:21:29.353Z,88.30
2019-03-22T05:24:00.936Z,88.60
2019-03-22T05:26:31.644Z,88.30
2019-03-22T05:29:06.688Z,88.30
2019-03-22T05:31:33.958Z,88.30
2019-03-22T05:34:04.030Z,88.30
2019-03-22T05:36:34.681Z,88.30
2019-03-22T05:39:04.588Z,88.40
2019-03-22T05:41:33.047Z,88.30
2019-03-22T05:44:01.531Z,88.30
2019-03-22T05:46:31.744Z,88.40
2019-03-22T05:49:00.691Z,88.40
2019-03-22T05:51:30.723Z,88.40
2019-03-22T05:54:01.585Z,88.50
2019-03-22T05:56:31.254Z,88.50
2019-03-22T05:59:05.328Z,88.50
2019-03-22T06:01:36.316Z,88.50
2019-03-22T06:04:05.283Z,88.60
2019-03-22T06:06:35.456Z,88.40
2019-03-22T06:09:12.579Z,88.40
2019-03-22T06:11:44.599Z,88.30
2019-03-22T06:14:14.648Z,88.20
2019-03-22T06:16:44.712Z,88.20
2019-03-22T06:19:14.232Z,88.30
2019-03-22T06:21:42.764Z,88.30
2019-03-22T06:24:13.763Z,88.20
2019-03-22T06:26:47.635Z,88.20
2019-03-22T06:29:16.162Z,88.20
2019-03-22T06:31:44.708Z,88.10
2019-03-22T06:34:15.837Z,88.10
2019-03-22T06:36:44.456Z,88.20
2019-03-22T06:39:14.504Z,88.10
2019-03-22T06:41:42.963Z,88.10
2019-03-22T06:44:15.365Z,88.00
2019-03-22T06:47:03.781Z,88.20
2019-03-22T06:49:34.837Z,88.40
2019-03-22T06:52:05.631Z,88.40
2019-03-22T06:54:35.664Z,88.20
2019-03-22T06:57:10.377Z,88.20
2019-03-22T06:59:39.837Z,88.20
2019-03-22T07:02:09.181Z,88.00
2019-03-22T07:04:38.953Z,88.00
2019-03-22T07:07:09.314Z,88.00
2019-03-22T07:09:38.836Z,87.70
2019-03-22T07:12:08.140Z,87.70
2019-03-22T07:14:37.082Z,87.70
2019-03-22T07:17:08.044Z,87.90
2019-03-22T07:19:36.548Z,87.70
2019-03-22T07:22:07.954Z,87.60
2019-03-22T07:24:38.183Z,87.50
2019-03-22T07:27:07.963Z,87.40
2019-03-22T07:29:38.096Z,87.40
2019-03-22T07:32:08.691Z,87.30
2019-03-22T07:34:37.148Z,87.30
2019-03-22T07:37:10.622Z,87.20
2019-03-22T07:39:42.223Z,87.30
2019-03-22T07:42:12.206Z,87.60
2019-03-22T07:44:44.203Z,87.10
2019-03-22T07:47:12.704Z,87.10
2019-03-22T07:49:41.175Z,87.10
2019-03-22T07:52:12.823Z,86.80
2019-03-22T07:54:42.230Z,86.70
2019-03-22T07:57:11.629Z,86.50
2019-03-22T07:59:40.182Z,86.60
2019-03-22T08:02:08.774Z,86.40
2019-03-22T08:04:37.276Z,86.30
2019-03-22T08:07:05.853Z,86.20
2019-03-22T08:09:34.847Z,86.00
2019-03-22T08:12:04.218Z,85.60
2019-03-22T08:14:33.836Z,85.50
2019-03-22T08:17:02.334Z,85.40
2019-03-22T08:19:32.136Z,85.40
2019-03-22T08:22:01.208Z,85.00
2019-03-22T08:24:29.736Z,85.00
2019-03-22T08:26:58.178Z,84.90
2019-03-22T08:29:29.353Z,84.90
2019-03-22T08:31:58.011Z,84.60
2019-03-22T08:34:26.567Z,84.40
2019-03-22T08:36:55.408Z,84.10
2019-03-22T08:39:24.941Z,83.80
2019-03-22T08:41:53.556Z,83.50
2019-03-22T08:44:22.852Z,83.40
2019-03-22T08:46:53.474Z,83.30
2019-03-22T08:49:22.710Z,83.30
2019-03-22T08:51:53.308Z,83.20
2019-03-22T08:54:21.896Z,83.10
2019-03-22T08:56:53.139Z,83.00
2019-03-22T08:59:23.310Z,82.80
2019-03-22T09:01:52.890Z,82.70
2019-03-22T09:04:21.374Z,82.50
2019-03-22T09:06:55.010Z,82.20
2019-03-22T09:09:26.071Z,82.00
2019-03-22T09:11:54.528Z,81.90
2019-03-22T09:14:23.080Z,81.80
2019-03-22T09:16:52.793Z,81.40
2019-03-22T09:19:22.665Z,81.00
2019-03-22T09:21:51.167Z,81.80
2019-03-22T09:24:20.440Z,80.80
2019-03-22T09:26:49.079Z,80.80
2019-03-22T09:29:19.171Z,80.40
2019-03-22T09:31:50.113Z,79.80
2019-03-22T09:34:18.843Z,79.40
2019-03-22T09:36:47.420Z,79.20
2019-03-22T09:39:17.554Z,79.00
2019-03-22T09:41:47.016Z,78.70
2019-03-22T09:44:15.557Z,78.00
2019-03-22T09:46:44.977Z,78.30
2019-03-22T09:49:13.502Z,77.90
2019-03-22T09:51:41.984Z,77.70
2019-03-22T09:54:10.571Z,77.50
2019-03-22T09:56:46.827Z,77.50
2019-03-22T09:59:09.295Z,77.40
2019-03-22T10:01:38.771Z,76.80
2019-03-22T10:04:07.314Z,76.60
2019-03-22T10:06:35.819Z,76.50
2019-03-22T10:09:06.569Z,76.40
2019-03-22T10:11:35.059Z,76.10
2019-03-22T10:14:03.697Z,76.50
2019-03-22T10:16:32.257Z,75.30
2019-03-22T10:19:00.766Z,75.20
2019-03-22T10:21:29.304Z,74.80
2019-03-22T10:23:57.848Z,74.30
2019-03-22T10:26:26.391Z,74.10
2019-03-22T10:29:00.130Z,74.00
2019-03-22T10:31:37.031Z,73.20
2019-03-22T10:33:58.872Z,73.00
2019-03-22T10:36:27.491Z,72.40
2019-03-22T10:38:57.581Z,71.80
2019-03-22T10:41:27.927Z,71.30
2019-03-22T10:43:56.421Z,72.40
2019-03-22T10:46:24.957Z,71.40
2019-03-22T10:48:54.163Z,71.30
2019-03-22T10:51:22.635Z,71.60
2019-03-22T10:53:51.155Z,72.80
2019-03-22T10:56:21.193Z,72.20
2019-03-22T10:58:51.404Z,72.00
2019-03-22T11:01:19.917Z,72.10
2019-03-22T11:03:48.498Z,72.30
2019-03-22T11:06:25.775Z,72.30
2019-03-22T11:08:49.538Z,72.50
2019-03-22T11:11:19.525Z,72.40
2019-03-22T11:13:48.064Z,72.30
2019-03-22T11:16:16.746Z,72.50
2019-03-22T11:18:45.375Z,72.50
2019-03-22T11:21:13.919Z,72.30
2019-03-22T11:23:44.797Z,72.10
2019-03-22T11:26:13.290Z,72.00
2019-03-22T11:28:42.015Z,71.70
2019-03-22T11:31:10.487Z,71.50
2019-03-22T11:33:42.956Z,71.40
2019-03-22T11:36:11.440Z,71.30
2019-03-22T11:38:40.112Z,71.00
2019-03-22T11:41:08.683Z,70.20
2019-03-22T11:43:39.724Z,69.60
2019-03-22T11:46:08.371Z,69.10
2019-03-22T11:48:38.542Z,68.70
2019-03-22T11:51:07.404Z,68.20
2019-03-22T11:53:35.864Z,67.90
2019-03-22T11:56:05.100Z,67.70
2019-03-22T11:58:35.675Z,67.00
2019-03-22T12:01:04.609Z,66.50
2019-03-22T12:03:33.176Z,65.90
2019-03-22T12:06:05.546Z,65.30
2019-03-22T12:08:34.179Z,64.40
2019-03-22T12:11:03.339Z,63.70
2019-03-22T12:13:31.810Z,62.70
2019-03-22T12:16:03.401Z,62.40
2019-03-22T12:18:32.139Z,61.70
2019-03-22T12:21:00.705Z,61.40
2019-03-22T12:23:29.746Z,61.20
2019-03-22T12:25:58.308Z,60.50
2019-03-22T12:28:27.409Z,59.90
2019-03-22T12:30:55.887Z,59.70
2019-03-22T12:33:24.383Z,59.60
2019-03-22T12:35:54.056Z,59.30
2019-03-22T12:38:29.217Z,59.10
2019-03-22T12:40:57.711Z,58.50
2019-03-22T12:43:26.179Z,58.00
2019-03-22T12:45:55.632Z,57.50
2019-03-22T12:48:24.121Z,57.20
2019-03-22T12:50:52.588Z,56.90
2019-03-22T12:53:22.782Z,56.50
2019-03-22T12:55:51.329Z,56.30
2019-03-22T12:58:25.026Z,56.00
2019-03-22T13:00:55.110Z,55.60
2019-03-22T13:03:24.430Z,55.10
2019-03-22T13:05:53.411Z,54.70
2019-03-22T13:08:22.083Z,52.40
2019-03-22T13:10:52.298Z,51.50
2019-03-22T13:13:20.782Z,51.70
2019-03-22T13:15:51.131Z,51.50
2019-03-22T13:18:19.870Z,50.30
2019-03-22T13:20:48.339Z,48.90
2019-03-22T13:23:18.503Z,47.90
2019-03-22T13:25:47.103Z,47.10
2019-03-22T13:28:15.701Z,45.30
2019-03-22T13:30:44.302Z,44.30
2019-03-22T13:33:12.811Z,43.40
2019-03-22T13:35:43.908Z,42.70
2019-03-22T13:38:13.400Z,42.80
2019-03-22T13:40:51.820Z,43.10
2019-03-22T13:43:20.287Z,43.20
2019-03-22T13:45:48.816Z,42.70
2019-03-22T13:48:17.481Z,42.60
2019-03-22T13:50:46.003Z,42.20
2019-03-22T13:53:15.233Z,41.30
2019-03-22T13:55:43.779Z,41.20
2019-03-22T13:58:12.242Z,41.20
2019-03-22T14:00:40.843Z,41.10
2019-03-22T14:03:09.621Z,40.90
2019-03-22T14:05:38.652Z,40.40
2019-03-22T14:08:07.455Z,40.40
2019-03-22T14:10:37.046Z,40.00
2019-03-22T14:13:06.891Z,39.90
2019-03-22T14:15:37.772Z,38.90
2019-03-22T14:18:06.871Z,37.70
2019-03-22T14:20:35.463Z,36.80
2019-03-22T14:23:05.038Z,36.10
2019-03-22T14:25:33.521Z,35.60
2019-03-22T14:28:01.991Z,34.30
2019-03-22T14:30:30.513Z,33.80
2019-03-22T14:32:59.007Z,33.50
2019-03-22T14:35:28.515Z,32.90
2019-03-22T14:37:57.817Z,32.10
2019-03-22T14:40:26.288Z,30.70
2019-03-22T14:42:54.798Z,30.00
2019-03-22T14:45:23.282Z,29.70
2019-03-22T14:47:51.775Z,29.30
2019-03-22T14:50:20.346Z,28.60
2019-03-22T14:52:48.863Z,27.70
2019-03-22T14:55:17.489Z,26.60
2019-03-22T14:57:49.342Z,25.60
2019-03-22T15:00:18.319Z,25.70
2019-03-22T15:02:46.909Z,25.50
2019-03-22T15:05:15.363Z,25.20
2019-03-22T15:07:44.057Z,24.70
2019-03-22T15:10:13.391Z,25.10
2019-03-22T15:12:42.495Z,24.90
2019-03-22T15:15:18.888Z,24.90
2019-03-22T15:17:51.571Z,25.00
2019-03-22T15:20:26.595Z,24.50
2019-03-22T15:22:58.250Z,25.10
2019-03-22T15:25:28.383Z,24.30
2019-03-22T15:28:14.436Z,23.20
2019-03-22T15:30:47.796Z,22.60
2019-03-22T15:33:18.118Z,22.30
2019-03-22T15:36:04.657Z,22.50
2019-03-22T15:38:51.779Z,22.10
2019-03-22T15:41:20.656Z,21.80
2019-03-22T15:43:50.510Z,21.80
2019-03-22T15:46:19.034Z,21.30
2019-03-22T15:48:49.158Z,21.20
2019-03-22T15:51:17.770Z,20.90
2019-03-22T15:53:46.338Z,20.60
2019-03-22T15:56:14.920Z,21.00
2019-03-22T15:58:43.474Z,20.30
2019-03-22T16:01:12.056Z,20.20
2019-03-22T16:03:44.428Z,20.40
2019-03-22T16:06:13.095Z,20.00
2019-03-22T16:08:44.736Z,20.10
2019-03-22T16:11:14.477Z,20.40
2019-03-22T16:13:43.044Z,20.70
2019-03-22T16:16:11.493Z,20.80
2019-03-22T16:18:41.618Z,21.50
2019-03-22T16:21:10.235Z,20.40
2019-03-22T16:23:40.749Z,20.70
2019-03-22T16:26:10.031Z,20.90
2019-03-22T16:28:38.628Z,21.20
2019-03-22T16:31:10.280Z,21.50
2019-03-22T16:33:38.862Z,21.50
2019-03-22T16:36:08.969Z,21.90
2019-03-22T16:38:37.422Z,22.20
2019-03-22T16:41:06.067Z,22.40
2019-03-22T16:43:35.372Z,22.60
2019-03-22T16:46:04.836Z,22.70
2019-03-22T16:48:33.404Z,23.00
2019-03-22T16:51:01.903Z,23.00
2019-03-22T16:53:31.962Z,23.10
2019-03-22T16:56:00.555Z,23.10
2019-03-22T16:58:29.086Z,23.60
2019-03-22T17:00:57.797Z,24.10
2019-03-22T17:03:26.946Z,24.60
2019-03-22T17:05:55.461Z,25.10
2019-03-22T17:08:24.104Z,26.00
2019-03-22T17:10:52.594Z,26.60
2019-03-22T17:13:21.886Z,27.30
2019-03-22T17:15:50.620Z,28.10
2019-03-22T17:18:19.196Z,28.80
2019-03-22T17:20:49.791Z,29.80
2019-03-22T17:23:19.998Z,29.90
2019-03-22T17:25:52.009Z,30.30
2019-03-22T17:28:25.412Z,31.00
2019-03-22T17:30:54.152Z,31.80
2019-03-22T17:33:24.259Z,32.60
2019-03-22T17:35:55.202Z,33.40
2019-03-22T17:38:23.780Z,34.30
2019-03-22T17:40:52.293Z,34.90
2019-03-22T17:43:23.074Z,35.70
2019-03-22T17:45:51.573Z,36.50
2019-03-22T17:48:21.340Z,37.10
2019-03-22T17:50:53.869Z,37.60
2019-03-22T17:53:22.338Z,38.20
2019-03-22T17:55:50.822Z,38.60
2019-03-22T17:58:19.453Z,39.30
2019-03-22T18:00:48.132Z,40.10
2019-03-22T18:03:16.620Z,40.70
2019-03-22T18:05:47.107Z,41.30
2019-03-22T18:08:17.170Z,41.70
2019-03-22T18:10:45.767Z,42.20
2019-03-22T18:13:14.296Z,42.70
2019-03-22T18:15:42.770Z,43.20
2019-03-22T18:18:11.363Z,43.60
2019-03-22T18:20:39.832Z,43.90
2019-03-22T18:23:11.201Z,44.30
2019-03-22T18:25:39.679Z,44.60
2019-03-22T18:28:08.296Z,44.80
2019-03-22T18:30:36.835Z,45.20
2019-03-22T18:33:05.353Z,45.50
2019-03-22T18:35:36.555Z,45.80
2019-03-22T18:38:05.179Z,46.10
2019-03-22T18:40:33.796Z,46.40
2019-03-22T18:43:02.320Z,46.50
2019-03-22T18:45:31.357Z,46.70
2019-03-22T18:47:59.904Z,46.90
2019-03-22T18:50:28.441Z,47.20
2019-03-22T18:52:56.963Z,47.50
2019-03-22T18:55:25.481Z,47.90
2019-03-22T18:57:58.419Z,48.90
2019-03-22T19:00:28.411Z,50.20
2019-03-22T19:02:56.901Z,51.60
2019-03-22T19:05:25.448Z,52.90
2019-03-22T19:07:53.958Z,54.20
2019-03-22T19:10:22.623Z,55.50
2019-03-22T19:12:51.203Z,56.70
2019-03-22T19:15:20.181Z,57.30
2019-03-22T19:17:49.982Z,58.30
2019-03-22T19:20:18.586Z,59.40
2019-03-22T19:22:49.452Z,60.00
2019-03-22T19:25:17.929Z,61.00
2019-03-22T19:27:46.457Z,61.80
2019-03-22T19:30:17.236Z,63.40
2019-03-22T19:32:45.898Z,63.40
2019-03-22T19:35:15.240Z,64.40
2019-03-22T19:37:43.817Z,64.80
2019-03-22T19:40:15.420Z,65.00
2019-03-22T19:42:44.055Z,64.60
2019-03-22T19:45:16.664Z,64.20
2019-03-22T19:47:44.774Z,63.70
2019-03-22T19:50:17.760Z,63.40
2019-03-22T19:52:46.591Z,63.10
2019-03-22T19:55:18.510Z,63.10
2019-03-22T19:57:48.558Z,63.70
2019-03-22T20:00:20.502Z,63.50
2019-03-22T20:02:49.334Z,63.40
2019-03-22T20:05:28.408Z,63.30
2019-03-22T20:08:00.452Z,63.60
2019-03-22T20:10:29.319Z,63.90
2019-03-22T20:12:57.866Z,64.10
2019-03-22T20:15:26.401Z,64.40
2019-03-22T20:17:55.270Z,64.80
2019-03-22T20:20:23.937Z,65.20
2019-03-22T20:22:52.573Z,65.80
2019-03-22T20:25:21.419Z,66.00
2019-03-22T20:27:49.970Z,66.50
2019-03-22T20:30:26.212Z,67.00
2019-03-22T20:32:52.909Z,67.00
2019-03-22T20:35:22.068Z,67.40
2019-03-22T20:37:52.973Z,67.90
2019-03-22T20:40:22.989Z,68.70
2019-03-22T20:42:53.913Z,69.20
2019-03-22T20:45:34.534Z,69.60
2019-03-22T20:47:54.228Z,70.50
2019-03-22T20:50:23.835Z,71.00
2019-03-22T20:52:53.501Z,71.70
2019-03-22T20:55:22.142Z,71.80
2019-03-22T20:57:50.859Z,72.10
2019-03-22T21:00:24.794Z,72.30
2019-03-22T21:02:54.911Z,72.90
2019-03-22T21:05:27.244Z,73.30
2019-03-22T21:07:55.126Z,73.90
2019-03-22T21:10:35.847Z,74.50
2019-03-22T21:13:07.381Z,75.50
2019-03-22T21:15:35.902Z,77.40
2019-03-22T21:18:05.034Z,78.20
2019-03-22T21:20:34.136Z,78.20
2019-03-22T21:23:02.584Z,78.20
2019-03-22T21:25:31.159Z,78.20
2019-03-22T21:27:59.749Z,78.20
2019-03-22T21:30:28.232Z,78.60
2019-03-22T21:32:58.172Z,78.80
2019-03-22T21:35:36.834Z,79.00
2019-03-22T21:37:59.129Z,79.10
2019-03-22T21:40:27.735Z,80.10
2019-03-22T21:42:59.978Z,79.90
2019-03-22T21:45:30.400Z,79.90
2019-03-22T21:47:58.911Z,79.90
2019-03-22T21:50:27.448Z,79.80
2019-03-22T21:52:57.159Z,79.80
2019-03-22T21:55:28.362Z,80.00
2019-03-22T21:57:57.055Z,80.20
2019-03-22T22:00:25.635Z,80.00
2019-03-22T22:02:56.244Z,80.50
2019-03-22T22:05:27.373Z,80.30
2019-03-22T22:07:55.863Z,80.20
2019-03-22T22:10:27.610Z,80.30
2019-03-22T22:12:56.068Z,80.30
2019-03-22T22:15:24.650Z,80.50
2019-03-22T22:17:53.135Z,80.60
2019-03-22T22:20:28.952Z,80.40
2019-03-22T22:22:53.472Z,80.40
2019-03-22T22:25:22.013Z,80.40
2019-03-22T22:27:50.540Z,80.60
2019-03-22T22:30:20.259Z,80.50
2019-03-22T22:32:52.524Z,80.40
2019-03-22T22:35:22.259Z,80.40
2019-03-22T22:37:52.273Z,80.50
2019-03-22T22:40:20.776Z,80.50
2019-03-22T22:42:50.751Z,80.50
2019-03-22T22:45:21.163Z,80.50
2019-03-22T22:47:51.360Z,80.60
2019-03-22T22:50:19.828Z,80.50
2019-03-22T22:52:49.840Z,80.50
2019-03-22T22:55:22.701Z,80.70
2019-03-22T22:57:52.449Z,80.60
2019-03-22T23:00:20.939Z,80.60
2019-03-22T23:02:49.414Z,80.60
2019-03-22T23:05:21.317Z,80.50
2019-03-22T23:07:49.794Z,80.50
2019-03-22T23:10:23.581Z,80.40
2019-03-22T23:12:54.722Z,80.60
2019-03-22T23:15:23.343Z,80.50
2019-03-22T23:17:51.888Z,80.40
2019-03-22T23:20:21.923Z,80.40
2019-03-22T23:22:51.386Z,80.30
2019-03-22T23:25:22.538Z,80.40
2019-03-22T23:27:56.452Z,80.40
2019-03-22T23:30:25.999Z,80.60
2019-03-22T23:32:54.526Z,80.60
2019-03-22T23:35:23.333Z,80.70
2019-03-22T23:37:51.819Z,80.70
2019-03-22T23:40:23.147Z,80.70
2019-03-22T23:42:55.761Z,80.70
2019-03-22T23:45:21.852Z,80.70
2019-03-22T23:47:50.311Z,80.50
2019-03-22T23:50:18.792Z,80.40
2019-03-22T23:52:48.801Z,80.50
2019-03-22T23:55:17.333Z,80.40
2019-03-22T23:57:45.792Z,80.20
